sensor_id;sensor_type;location;lat;lon;timestamp;P1;durP1;ratioP1;P2;durP2;ratioP2
55134;SDS011;41031;44.750;11.308;2023-05-10T00:00:25;6.17;;;5.57;;
55134;SDS011;41031;44.750;11.308;2023-05-10T00:02:52;5.83;;;5.23;;
55134;SDS011;41031;44.750;11.308;2023-05-10T00:05:19;5.77;;;4.90;;
55134;SDS011;41031;44.750;11.308;2023-05-10T00:07:46;6.60;;;5.60;;
55134;SDS011;41031;44.750;11.308;2023-05-10T00:10:13;8.13;;;6.37;;
55134;SDS011;41031;44.750;11.308;2023-05-10T00:12:41;7.90;;;5.80;;
55134;SDS011;41031;44.750;11.308;2023-05-10T00:15:08;6.20;;;5.60;;
55134;SDS011;41031;44.750;11.308;2023-05-10T00:17:35;7.20;;;6.23;;
55134;SDS011;41031;44.750;11.308;2023-05-10T00:20:03;7.10;;;5.73;;
55134;SDS011;41031;44.750;11.308;2023-05-10T00:22:31;8.13;;;5.43;;
55134;SDS011;41031;44.750;11.308;2023-05-10T00:24:58;5.80;;;5.20;;
55134;SDS011;41031;44.750;11.308;2023-05-10T00:27:25;7.00;;;5.13;;
55134;SDS011;41031;44.750;11.308;2023-05-10T00:29:52;6.93;;;5.33;;
55134;SDS011;41031;44.750;11.308;2023-05-10T00:32:19;8.57;;;5.50;;
55134;SDS011;41031;44.750;11.308;2023-05-10T00:34:47;6.67;;;5.97;;
55134;SDS011;41031;44.750;11.308;2023-05-10T00:37:14;9.80;;;5.67;;
55134;SDS011;41031;44.750;11.308;2023-05-10T00:39:41;10.37;;;6.57;;
55134;SDS011;41031;44.750;11.308;2023-05-10T00:42:08;9.57;;;5.30;;
55134;SDS011;41031;44.750;11.308;2023-05-10T00:44:35;5.57;;;4.97;;
55134;SDS011;41031;44.750;11.308;2023-05-10T00:47:02;8.03;;;5.60;;
55134;SDS011;41031;44.750;11.308;2023-05-10T00:49:29;8.73;;;5.77;;
55134;SDS011;41031;44.750;11.308;2023-05-10T00:51:57;8.90;;;5.60;;
55134;SDS011;41031;44.750;11.308;2023-05-10T00:54:25;6.53;;;5.27;;
55134;SDS011;41031;44.750;11.308;2023-05-10T00:56:52;7.10;;;5.37;;
55134;SDS011;41031;44.750;11.308;2023-05-10T00:59:19;5.47;;;4.80;;
55134;SDS011;41031;44.750;11.308;2023-05-10T01:01:47;5.20;;;3.93;;
55134;SDS011;41031;44.750;11.308;2023-05-10T01:04:14;4.87;;;4.37;;
55134;SDS011;41031;44.750;11.308;2023-05-10T01:06:42;8.90;;;5.47;;
55134;SDS011;41031;44.750;11.308;2023-05-10T01:09:09;5.30;;;4.80;;
55134;SDS011;41031;44.750;11.308;2023-05-10T01:11:38;8.40;;;5.03;;
55134;SDS011;41031;44.750;11.308;2023-05-10T01:14:06;7.33;;;4.90;;
55134;SDS011;41031;44.750;11.308;2023-05-10T01:16:35;5.23;;;4.70;;
55134;SDS011;41031;44.750;11.308;2023-05-10T01:19:12;8.37;;;4.53;;
55134;SDS011;41031;44.750;11.308;2023-05-10T01:27:03;5.23;;;4.73;;
55134;SDS011;41031;44.750;11.308;2023-05-10T01:32:47;6.23;;;5.03;;
55134;SDS011;41031;44.750;11.308;2023-05-10T01:35:27;8.70;;;5.73;;
55134;SDS011;41031;44.750;11.308;2023-05-10T01:43:37;7.03;;;5.70;;
55134;SDS011;41031;44.750;11.308;2023-05-10T01:46:20;7.30;;;5.13;;
55134;SDS011;41031;44.750;11.308;2023-05-10T01:48:55;5.20;;;4.70;;
55134;SDS011;41031;44.750;11.308;2023-05-10T01:51:27;5.03;;;4.53;;
55134;SDS011;41031;44.750;11.308;2023-05-10T01:54:03;5.73;;;5.10;;
55134;SDS011;41031;44.750;11.308;2023-05-10T01:56:33;5.50;;;4.70;;
55134;SDS011;41031;44.750;11.308;2023-05-10T01:59:01;7.40;;;5.63;;
55134;SDS011;41031;44.750;11.308;2023-05-10T02:01:35;6.40;;;5.33;;
55134;SDS011;41031;44.750;11.308;2023-05-10T02:04:05;6.17;;;5.57;;
55134;SDS011;41031;44.750;11.308;2023-05-10T02:06:35;7.30;;;5.53;;
55134;SDS011;41031;44.750;11.308;2023-05-10T02:09:04;7.40;;;5.57;;
55134;SDS011;41031;44.750;11.308;2023-05-10T02:11:33;9.00;;;5.00;;
55134;SDS011;41031;44.750;11.308;2023-05-10T02:14:00;5.90;;;5.10;;
55134;SDS011;41031;44.750;11.308;2023-05-10T02:16:28;5.30;;;4.80;;
55134;SDS011;41031;44.750;11.308;2023-05-10T02:18:58;10.73;;;5.00;;
55134;SDS011;41031;44.750;11.308;2023-05-10T02:21:27;5.23;;;4.70;;
55134;SDS011;41031;44.750;11.308;2023-05-10T02:23:55;5.60;;;4.93;;
55134;SDS011;41031;44.750;11.308;2023-05-10T02:26:24;6.93;;;4.43;;
55134;SDS011;41031;44.750;11.308;2023-05-10T02:28:52;5.63;;;4.83;;
55134;SDS011;41031;44.750;11.308;2023-05-10T02:31:21;8.63;;;4.50;;
55134;SDS011;41031;44.750;11.308;2023-05-10T02:33:49;7.40;;;4.43;;
55134;SDS011;41031;44.750;11.308;2023-05-10T02:36:17;4.60;;;4.20;;
55134;SDS011;41031;44.750;11.308;2023-05-10T02:38:45;6.17;;;3.97;;
55134;SDS011;41031;44.750;11.308;2023-05-10T02:41:15;5.03;;;4.53;;
55134;SDS011;41031;44.750;11.308;2023-05-10T02:43:42;10.40;;;4.73;;
55134;SDS011;41031;44.750;11.308;2023-05-10T02:46:10;4.93;;;4.43;;
55134;SDS011;41031;44.750;11.308;2023-05-10T02:48:37;7.23;;;4.17;;
55134;SDS011;41031;44.750;11.308;2023-05-10T02:51:05;6.07;;;4.50;;
55134;SDS011;41031;44.750;11.308;2023-05-10T02:53:34;5.00;;;4.50;;
55134;SDS011;41031;44.750;11.308;2023-05-10T02:56:05;6.80;;;5.20;;
55134;SDS011;41031;44.750;11.308;2023-05-10T02:58:38;4.70;;;4.27;;
55134;SDS011;41031;44.750;11.308;2023-05-10T03:01:05;4.93;;;4.47;;
55134;SDS011;41031;44.750;11.308;2023-05-10T03:03:34;4.40;;;3.77;;
55134;SDS011;41031;44.750;11.308;2023-05-10T03:06:01;5.83;;;4.43;;
55134;SDS011;41031;44.750;11.308;2023-05-10T03:08:28;4.33;;;3.93;;
55134;SDS011;41031;44.750;11.308;2023-05-10T03:16:41;9.63;;;4.30;;
55134;SDS011;41031;44.750;11.308;2023-05-10T03:19:17;5.23;;;3.73;;
55134;SDS011;41031;44.750;11.308;2023-05-10T03:21:53;5.13;;;4.13;;
55134;SDS011;41031;44.750;11.308;2023-05-10T03:24:29;5.37;;;3.60;;
55134;SDS011;41031;44.750;11.308;2023-05-10T03:26:59;4.40;;;3.67;;
55134;SDS011;41031;44.750;11.308;2023-05-10T03:29:30;5.37;;;4.37;;
55134;SDS011;41031;44.750;11.308;2023-05-10T03:31:58;4.83;;;4.33;;
55134;SDS011;41031;44.750;11.308;2023-05-10T03:34:30;4.97;;;4.20;;
55134;SDS011;41031;44.750;11.308;2023-05-10T03:36:58;4.50;;;4.10;;
55134;SDS011;41031;44.750;11.308;2023-05-10T03:39:28;5.13;;;3.60;;
55134;SDS011;41031;44.750;11.308;2023-05-10T03:41:57;4.53;;;4.13;;
55134;SDS011;41031;44.750;11.308;2023-05-10T03:44:24;4.87;;;4.33;;
55134;SDS011;41031;44.750;11.308;2023-05-10T03:46:51;5.43;;;3.63;;
55134;SDS011;41031;44.750;11.308;2023-05-10T03:49:19;5.00;;;4.23;;
55134;SDS011;41031;44.750;11.308;2023-05-10T03:51:46;5.13;;;3.90;;
55134;SDS011;41031;44.750;11.308;2023-05-10T03:54:14;7.17;;;4.50;;
55134;SDS011;41031;44.750;11.308;2023-05-10T03:56:41;8.73;;;4.37;;
55134;SDS011;41031;44.750;11.308;2023-05-10T03:59:08;4.63;;;4.03;;
55134;SDS011;41031;44.750;11.308;2023-05-10T04:01:35;10.80;;;4.20;;
55134;SDS011;41031;44.750;11.308;2023-05-10T04:04:02;6.70;;;4.03;;
55134;SDS011;41031;44.750;11.308;2023-05-10T04:06:30;6.40;;;3.90;;
55134;SDS011;41031;44.750;11.308;2023-05-10T04:08:58;4.70;;;3.70;;
55134;SDS011;41031;44.750;11.308;2023-05-10T04:11:30;5.93;;;3.93;;
55134;SDS011;41031;44.750;11.308;2023-05-10T04:13:57;5.07;;;4.13;;
55134;SDS011;41031;44.750;11.308;2023-05-10T04:16:24;4.03;;;3.63;;
55134;SDS011;41031;44.750;11.308;2023-05-10T04:18:51;5.10;;;4.13;;
55134;SDS011;41031;44.750;11.308;2023-05-10T04:21:18;4.90;;;4.10;;
55134;SDS011;41031;44.750;11.308;2023-05-10T04:23:45;5.00;;;4.17;;
55134;SDS011;41031;44.750;11.308;2023-05-10T04:26:12;5.97;;;4.07;;
55134;SDS011;41031;44.750;11.308;2023-05-10T04:28:39;4.60;;;3.73;;
55134;SDS011;41031;44.750;11.308;2023-05-10T04:31:07;4.47;;;3.73;;
55134;SDS011;41031;44.750;11.308;2023-05-10T04:33:36;6.80;;;4.00;;
55134;SDS011;41031;44.750;11.308;2023-05-10T04:36:03;6.13;;;3.43;;
55134;SDS011;41031;44.750;11.308;2023-05-10T04:38:30;7.10;;;4.17;;
55134;SDS011;41031;44.750;11.308;2023-05-10T04:41:04;6.27;;;3.93;;
55134;SDS011;41031;44.750;11.308;2023-05-10T04:43:32;3.90;;;3.50;;
55134;SDS011;41031;44.750;11.308;2023-05-10T04:45:59;4.43;;;3.93;;
55134;SDS011;41031;44.750;11.308;2023-05-10T04:48:26;3.87;;;3.47;;
55134;SDS011;41031;44.750;11.308;2023-05-10T04:50:53;5.10;;;3.80;;
55134;SDS011;41031;44.750;11.308;2023-05-10T04:53:20;4.30;;;3.90;;
55134;SDS011;41031;44.750;11.308;2023-05-10T04:55:47;5.43;;;3.60;;
55134;SDS011;41031;44.750;11.308;2023-05-10T04:58:15;4.63;;;3.30;;
55134;SDS011;41031;44.750;11.308;2023-05-10T05:00:42;9.87;;;4.37;;
55134;SDS011;41031;44.750;11.308;2023-05-10T05:03:09;4.67;;;4.17;;
55134;SDS011;41031;44.750;11.308;2023-05-10T05:05:36;6.53;;;4.13;;
55134;SDS011;41031;44.750;11.308;2023-05-10T05:08:03;4.27;;;3.87;;
55134;SDS011;41031;44.750;11.308;2023-05-10T05:10:30;6.50;;;3.87;;
55134;SDS011;41031;44.750;11.308;2023-05-10T05:12:57;4.40;;;3.43;;
55134;SDS011;41031;44.750;11.308;2023-05-10T05:15:24;6.40;;;4.10;;
55134;SDS011;41031;44.750;11.308;2023-05-10T05:17:51;6.03;;;4.43;;
55134;SDS011;41031;44.750;11.308;2023-05-10T05:20:18;4.23;;;3.60;;
55134;SDS011;41031;44.750;11.308;2023-05-10T05:22:45;8.93;;;3.63;;
55134;SDS011;41031;44.750;11.308;2023-05-10T05:25:12;3.80;;;3.37;;
55134;SDS011;41031;44.750;11.308;2023-05-10T05:27:39;5.87;;;3.30;;
55134;SDS011;41031;44.750;11.308;2023-05-10T05:30:06;3.33;;;3.03;;
55134;SDS011;41031;44.750;11.308;2023-05-10T05:32:34;5.80;;;3.60;;
55134;SDS011;41031;44.750;11.308;2023-05-10T05:35:01;4.30;;;3.30;;
55134;SDS011;41031;44.750;11.308;2023-05-10T05:37:28;3.90;;;3.50;;
55134;SDS011;41031;44.750;11.308;2023-05-10T05:39:55;3.40;;;3.10;;
55134;SDS011;41031;44.750;11.308;2023-05-10T05:42:22;4.07;;;3.67;;
55134;SDS011;41031;44.750;11.308;2023-05-10T05:44:48;4.23;;;3.50;;
55134;SDS011;41031;44.750;11.308;2023-05-10T05:47:15;3.83;;;3.43;;
55134;SDS011;41031;44.750;11.308;2023-05-10T05:49:43;5.33;;;3.63;;
55134;SDS011;41031;44.750;11.308;2023-05-10T05:52:12;6.40;;;3.57;;
55134;SDS011;41031;44.750;11.308;2023-05-10T05:54:39;4.90;;;3.60;;
55134;SDS011;41031;44.750;11.308;2023-05-10T05:57:06;3.80;;;3.43;;
55134;SDS011;41031;44.750;11.308;2023-05-10T05:59:33;4.90;;;3.40;;
55134;SDS011;41031;44.750;11.308;2023-05-10T06:02:00;4.17;;;3.37;;
55134;SDS011;41031;44.750;11.308;2023-05-10T06:04:28;6.70;;;3.20;;
55134;SDS011;41031;44.750;11.308;2023-05-10T06:06:55;7.67;;;3.73;;
55134;SDS011;41031;44.750;11.308;2023-05-10T06:09:22;4.63;;;3.90;;
55134;SDS011;41031;44.750;11.308;2023-05-10T06:11:50;4.43;;;3.20;;
55134;SDS011;41031;44.750;11.308;2023-05-10T06:14:19;4.47;;;4.00;;
55134;SDS011;41031;44.750;11.308;2023-05-10T06:16:47;3.80;;;3.50;;
55134;SDS011;41031;44.750;11.308;2023-05-10T06:19:13;7.17;;;4.40;;
55134;SDS011;41031;44.750;11.308;2023-05-10T06:21:40;5.13;;;4.33;;
55134;SDS011;41031;44.750;11.308;2023-05-10T06:24:07;7.07;;;4.70;;
55134;SDS011;41031;44.750;11.308;2023-05-10T06:26:34;4.87;;;4.37;;
55134;SDS011;41031;44.750;11.308;2023-05-10T06:29:02;5.97;;;4.77;;
55134;SDS011;41031;44.750;11.308;2023-05-10T06:31:29;6.20;;;5.30;;
55134;SDS011;41031;44.750;11.308;2023-05-10T06:33:56;7.67;;;4.73;;
55134;SDS011;41031;44.750;11.308;2023-05-10T06:36:24;5.37;;;4.50;;
55134;SDS011;41031;44.750;11.308;2023-05-10T06:38:52;4.60;;;4.20;;
55134;SDS011;41031;44.750;11.308;2023-05-10T06:41:19;5.17;;;4.13;;
55134;SDS011;41031;44.750;11.308;2023-05-10T06:43:49;5.73;;;3.70;;
55134;SDS011;41031;44.750;11.308;2023-05-10T06:46:17;7.83;;;3.87;;
55134;SDS011;41031;44.750;11.308;2023-05-10T06:48:44;7.67;;;4.97;;
55134;SDS011;41031;44.750;11.308;2023-05-10T06:51:11;5.97;;;5.37;;
55134;SDS011;41031;44.750;11.308;2023-05-10T06:53:38;5.90;;;5.27;;
55134;SDS011;41031;44.750;11.308;2023-05-10T06:56:04;9.57;;;6.50;;
55134;SDS011;41031;44.750;11.308;2023-05-10T06:58:31;6.90;;;6.20;;
55134;SDS011;41031;44.750;11.308;2023-05-10T07:01:02;6.47;;;5.90;;
55134;SDS011;41031;44.750;11.308;2023-05-10T07:03:31;7.87;;;6.00;;
55134;SDS011;41031;44.750;11.308;2023-05-10T07:06:04;7.23;;;5.90;;
55134;SDS011;41031;44.750;11.308;2023-05-10T07:08:41;9.20;;;6.67;;
55134;SDS011;41031;44.750;11.308;2023-05-10T07:11:08;6.40;;;5.77;;
55134;SDS011;41031;44.750;11.308;2023-05-10T07:13:36;9.50;;;6.97;;
55134;SDS011;41031;44.750;11.308;2023-05-10T07:16:05;9.90;;;7.93;;
55134;SDS011;41031;44.750;11.308;2023-05-10T07:18:33;8.07;;;6.67;;
55134;SDS011;41031;44.750;11.308;2023-05-10T07:21:00;7.07;;;6.37;;
55134;SDS011;41031;44.750;11.308;2023-05-10T07:23:27;7.63;;;6.67;;
55134;SDS011;41031;44.750;11.308;2023-05-10T07:25:54;10.23;;;6.60;;
55134;SDS011;41031;44.750;11.308;2023-05-10T07:28:21;11.07;;;7.93;;
55134;SDS011;41031;44.750;11.308;2023-05-10T07:30:48;8.10;;;6.50;;
55134;SDS011;41031;44.750;11.308;2023-05-10T07:33:15;7.13;;;6.43;;
55134;SDS011;41031;44.750;11.308;2023-05-10T07:35:43;10.03;;;7.40;;
55134;SDS011;41031;44.750;11.308;2023-05-10T07:38:10;10.07;;;7.27;;
55134;SDS011;41031;44.750;11.308;2023-05-10T07:40:39;7.03;;;6.17;;
55134;SDS011;41031;44.750;11.308;2023-05-10T07:43:06;6.97;;;5.63;;
55134;SDS011;41031;44.750;11.308;2023-05-10T07:45:33;8.60;;;6.37;;
55134;SDS011;41031;44.750;11.308;2023-05-10T07:48:01;7.13;;;6.27;;
55134;SDS011;41031;44.750;11.308;2023-05-10T07:50:28;7.50;;;6.73;;
55134;SDS011;41031;44.750;11.308;2023-05-10T07:52:55;7.53;;;6.53;;
55134;SDS011;41031;44.750;11.308;2023-05-10T07:55:22;9.37;;;6.30;;
55134;SDS011;41031;44.750;11.308;2023-05-10T07:57:49;7.83;;;6.70;;
55134;SDS011;41031;44.750;11.308;2023-05-10T08:00:17;7.07;;;6.00;;
55134;SDS011;41031;44.750;11.308;2023-05-10T08:02:45;6.73;;;6.00;;
55134;SDS011;41031;44.750;11.308;2023-05-10T08:05:13;7.30;;;6.20;;
55134;SDS011;41031;44.750;11.308;2023-05-10T08:07:41;8.13;;;6.40;;
55134;SDS011;41031;44.750;11.308;2023-05-10T08:10:09;7.80;;;6.33;;
55134;SDS011;41031;44.750;11.308;2023-05-10T08:12:37;6.73;;;5.77;;
55134;SDS011;41031;44.750;11.308;2023-05-10T08:15:05;6.73;;;5.67;;
55134;SDS011;41031;44.750;11.308;2023-05-10T08:17:33;7.30;;;6.00;;
55134;SDS011;41031;44.750;11.308;2023-05-10T08:20:00;6.33;;;5.73;;
55134;SDS011;41031;44.750;11.308;2023-05-10T08:22:27;8.87;;;6.50;;
55134;SDS011;41031;44.750;11.308;2023-05-10T08:24:54;11.97;;;6.17;;
55134;SDS011;41031;44.750;11.308;2023-05-10T08:27:20;7.77;;;6.70;;
55134;SDS011;41031;44.750;11.308;2023-05-10T08:29:48;7.27;;;5.93;;
55134;SDS011;41031;44.750;11.308;2023-05-10T08:32:16;10.30;;;6.93;;
55134;SDS011;41031;44.750;11.308;2023-05-10T08:34:43;7.97;;;5.70;;
55134;SDS011;41031;44.750;11.308;2023-05-10T08:37:10;6.70;;;5.27;;
55134;SDS011;41031;44.750;11.308;2023-05-10T08:39:40;6.77;;;6.17;;
55134;SDS011;41031;44.750;11.308;2023-05-10T08:42:07;8.57;;;5.67;;
55134;SDS011;41031;44.750;11.308;2023-05-10T08:44:35;7.13;;;6.43;;
55134;SDS011;41031;44.750;11.308;2023-05-10T08:47:06;6.93;;;6.03;;
55134;SDS011;41031;44.750;11.308;2023-05-10T08:49:34;7.17;;;6.43;;
55134;SDS011;41031;44.750;11.308;2023-05-10T08:52:04;7.80;;;6.83;;
55134;SDS011;41031;44.750;11.308;2023-05-10T08:54:33;9.90;;;6.70;;
55134;SDS011;41031;44.750;11.308;2023-05-10T08:57:00;8.70;;;5.83;;
55134;SDS011;41031;44.750;11.308;2023-05-10T08:59:28;7.83;;;7.00;;
55134;SDS011;41031;44.750;11.308;2023-05-10T09:01:58;7.13;;;5.83;;
55134;SDS011;41031;44.750;11.308;2023-05-10T09:04:26;7.87;;;6.47;;
55134;SDS011;41031;44.750;11.308;2023-05-10T09:06:54;9.13;;;6.60;;
55134;SDS011;41031;44.750;11.308;2023-05-10T09:09:21;10.40;;;7.13;;
55134;SDS011;41031;44.750;11.308;2023-05-10T09:11:49;7.27;;;5.83;;
55134;SDS011;41031;44.750;11.308;2023-05-10T09:14:16;8.50;;;6.90;;
55134;SDS011;41031;44.750;11.308;2023-05-10T09:16:43;8.93;;;6.93;;
55134;SDS011;41031;44.750;11.308;2023-05-10T09:19:11;9.70;;;6.33;;
55134;SDS011;41031;44.750;11.308;2023-05-10T09:21:38;8.20;;;6.00;;
55134;SDS011;41031;44.750;11.308;2023-05-10T09:24:05;7.20;;;5.83;;
55134;SDS011;41031;44.750;11.308;2023-05-10T09:26:34;8.40;;;6.60;;
55134;SDS011;41031;44.750;11.308;2023-05-10T09:29:02;7.03;;;5.67;;
55134;SDS011;41031;44.750;11.308;2023-05-10T09:31:45;7.47;;;6.13;;
55134;SDS011;41031;44.750;11.308;2023-05-10T09:34:28;9.13;;;7.33;;
55134;SDS011;41031;44.750;11.308;2023-05-10T09:36:56;12.63;;;6.73;;
55134;SDS011;41031;44.750;11.308;2023-05-10T09:39:34;9.17;;;7.00;;
55134;SDS011;41031;44.750;11.308;2023-05-10T09:42:03;8.30;;;5.57;;
55134;SDS011;41031;44.750;11.308;2023-05-10T09:44:32;8.80;;;6.80;;
55134;SDS011;41031;44.750;11.308;2023-05-10T09:47:00;8.57;;;6.80;;
55134;SDS011;41031;44.750;11.308;2023-05-10T09:49:28;8.67;;;6.70;;
55134;SDS011;41031;44.750;11.308;2023-05-10T09:52:05;9.33;;;6.83;;
55134;SDS011;41031;44.750;11.308;2023-05-10T09:54:33;7.27;;;5.97;;
55134;SDS011;41031;44.750;11.308;2023-05-10T09:57:01;8.87;;;7.10;;
55134;SDS011;41031;44.750;11.308;2023-05-10T09:59:28;7.60;;;6.80;;
55134;SDS011;41031;44.750;11.308;2023-05-10T10:01:59;7.27;;;6.47;;
55134;SDS011;41031;44.750;11.308;2023-05-10T10:04:27;8.73;;;6.03;;
55134;SDS011;41031;44.750;11.308;2023-05-10T10:06:58;9.70;;;6.27;;
55134;SDS011;41031;44.750;11.308;2023-05-10T10:09:27;8.67;;;6.50;;
55134;SDS011;41031;44.750;11.308;2023-05-10T10:11:54;8.27;;;5.97;;
55134;SDS011;41031;44.750;11.308;2023-05-10T10:14:22;7.37;;;6.40;;
55134;SDS011;41031;44.750;11.308;2023-05-10T10:16:51;7.53;;;6.40;;
55134;SDS011;41031;44.750;11.308;2023-05-10T10:19:33;9.53;;;6.70;;
55134;SDS011;41031;44.750;11.308;2023-05-10T10:22:04;8.70;;;6.70;;
55134;SDS011;41031;44.750;11.308;2023-05-10T10:24:32;8.47;;;6.67;;
55134;SDS011;41031;44.750;11.308;2023-05-10T10:27:02;7.27;;;6.57;;
55134;SDS011;41031;44.750;11.308;2023-05-10T10:35:52;8.20;;;6.50;;
55134;SDS011;41031;44.750;11.308;2023-05-10T10:38:20;9.17;;;6.47;;
55134;SDS011;41031;44.750;11.308;2023-05-10T10:40:48;8.53;;;6.57;;
55134;SDS011;41031;44.750;11.308;2023-05-10T10:43:29;6.07;;;5.47;;
55134;SDS011;41031;44.750;11.308;2023-05-10T10:46:15;7.27;;;6.57;;
55134;SDS011;41031;44.750;11.308;2023-05-10T10:48:47;7.87;;;6.00;;
55134;SDS011;41031;44.750;11.308;2023-05-10T10:51:38;6.77;;;5.27;;
55134;SDS011;41031;44.750;11.308;2023-05-10T10:54:09;6.90;;;5.50;;
55134;SDS011;41031;44.750;11.308;2023-05-10T10:56:37;7.93;;;5.93;;
55134;SDS011;41031;44.750;11.308;2023-05-10T10:59:04;9.47;;;6.17;;
55134;SDS011;41031;44.750;11.308;2023-05-10T11:01:34;9.13;;;6.80;;
55134;SDS011;41031;44.750;11.308;2023-05-10T11:06:32;8.87;;;6.83;;
55134;SDS011;41031;44.750;11.308;2023-05-10T11:09:11;7.40;;;5.73;;
55134;SDS011;41031;44.750;11.308;2023-05-10T11:11:51;6.53;;;5.77;;
55134;SDS011;41031;44.750;11.308;2023-05-10T11:14:21;7.53;;;5.67;;
55134;SDS011;41031;44.750;11.308;2023-05-10T11:16:49;5.77;;;5.17;;
55134;SDS011;41031;44.750;11.308;2023-05-10T11:19:16;8.00;;;5.83;;
55134;SDS011;41031;44.750;11.308;2023-05-10T11:21:51;9.20;;;5.17;;
55134;SDS011;41031;44.750;11.308;2023-05-10T11:24:39;8.27;;;5.47;;
55134;SDS011;41031;44.750;11.308;2023-05-10T11:27:06;5.20;;;4.70;;
55134;SDS011;41031;44.750;11.308;2023-05-10T11:29:33;6.83;;;5.20;;
55134;SDS011;41031;44.750;11.308;2023-05-10T11:32:00;5.60;;;5.00;;
55134;SDS011;41031;44.750;11.308;2023-05-10T11:34:28;6.90;;;5.13;;
55134;SDS011;41031;44.750;11.308;2023-05-10T11:36:56;6.50;;;5.73;;
55134;SDS011;41031;44.750;11.308;2023-05-10T11:39:31;8.00;;;5.73;;
55134;SDS011;41031;44.750;11.308;2023-05-10T11:41:58;8.57;;;5.53;;
55134;SDS011;41031;44.750;11.308;2023-05-10T11:44:32;6.23;;;4.80;;
55134;SDS011;41031;44.750;11.308;2023-05-10T11:47:00;7.17;;;4.77;;
55134;SDS011;41031;44.750;11.308;2023-05-10T11:49:27;4.63;;;4.23;;
55134;SDS011;41031;44.750;11.308;2023-05-10T11:52:03;7.43;;;4.63;;
55134;SDS011;41031;44.750;11.308;2023-05-10T11:54:31;5.63;;;4.90;;
55134;SDS011;41031;44.750;11.308;2023-05-10T11:57:01;5.27;;;4.43;;
55134;SDS011;41031;44.750;11.308;2023-05-10T11:59:28;5.73;;;5.10;;
55134;SDS011;41031;44.750;11.308;2023-05-10T12:01:55;5.30;;;4.80;;
55134;SDS011;41031;44.750;11.308;2023-05-10T12:04:22;4.60;;;4.20;;
55134;SDS011;41031;44.750;11.308;2023-05-10T12:06:49;4.37;;;3.60;;
55134;SDS011;41031;44.750;11.308;2023-05-10T12:09:16;4.33;;;3.90;;
55134;SDS011;41031;44.750;11.308;2023-05-10T12:11:57;4.97;;;4.47;;
55134;SDS011;41031;44.750;11.308;2023-05-10T12:14:24;4.60;;;3.87;;
55134;SDS011;41031;44.750;11.308;2023-05-10T12:16:51;7.60;;;4.00;;
55134;SDS011;41031;44.750;11.308;2023-05-10T12:19:18;4.57;;;4.13;;
55134;SDS011;41031;44.750;11.308;2023-05-10T12:21:49;5.23;;;3.37;;
55134;SDS011;41031;44.750;11.308;2023-05-10T12:24:16;8.03;;;4.37;;
55134;SDS011;41031;44.750;11.308;2023-05-10T12:26:47;5.97;;;4.13;;
55134;SDS011;41031;44.750;11.308;2023-05-10T12:29:15;6.80;;;4.30;;
55134;SDS011;41031;44.750;11.308;2023-05-10T12:31:54;4.07;;;3.60;;
55134;SDS011;41031;44.750;11.308;2023-05-10T12:34:32;3.90;;;3.33;;
55134;SDS011;41031;44.750;11.308;2023-05-10T12:37:01;6.70;;;4.17;;
55134;SDS011;41031;44.750;11.308;2023-05-10T12:39:39;3.67;;;3.30;;
55134;SDS011;41031;44.750;11.308;2023-05-10T12:42:08;7.20;;;4.13;;
55134;SDS011;41031;44.750;11.308;2023-05-10T12:44:36;8.33;;;4.57;;
55134;SDS011;41031;44.750;11.308;2023-05-10T12:47:03;4.53;;;4.10;;
55134;SDS011;41031;44.750;11.308;2023-05-10T12:49:30;9.97;;;4.37;;
55134;SDS011;41031;44.750;11.308;2023-05-10T12:51:57;3.70;;;3.40;;
55134;SDS011;41031;44.750;11.308;2023-05-10T12:54:24;5.37;;;3.37;;
55134;SDS011;41031;44.750;11.308;2023-05-10T12:56:52;4.53;;;3.70;;
55134;SDS011;41031;44.750;11.308;2023-05-10T12:59:19;7.13;;;3.80;;
55134;SDS011;41031;44.750;11.308;2023-05-10T13:01:46;3.97;;;3.43;;
55134;SDS011;41031;44.750;11.308;2023-05-10T13:04:13;3.10;;;2.70;;
55134;SDS011;41031;44.750;11.308;2023-05-10T13:06:40;3.90;;;3.10;;
55134;SDS011;41031;44.750;11.308;2023-05-10T13:09:07;3.10;;;2.53;;
55134;SDS011;41031;44.750;11.308;2023-05-10T13:11:34;3.33;;;2.47;;
55134;SDS011;41031;44.750;11.308;2023-05-10T13:14:00;2.77;;;2.50;;
55134;SDS011;41031;44.750;11.308;2023-05-10T13:16:29;5.27;;;2.23;;
55134;SDS011;41031;44.750;11.308;2023-05-10T13:18:56;3.83;;;2.43;;
55134;SDS011;41031;44.750;11.308;2023-05-10T13:21:24;5.57;;;2.40;;
55134;SDS011;41031;44.750;11.308;2023-05-10T13:23:52;4.40;;;2.67;;
55134;SDS011;41031;44.750;11.308;2023-05-10T13:26:19;5.23;;;2.70;;
55134;SDS011;41031;44.750;11.308;2023-05-10T13:28:47;3.97;;;3.33;;
55134;SDS011;41031;44.750;11.308;2023-05-10T13:31:15;9.33;;;4.00;;
55134;SDS011;41031;44.750;11.308;2023-05-10T13:33:42;4.03;;;3.30;;
55134;SDS011;41031;44.750;11.308;2023-05-10T13:36:09;3.87;;;3.30;;
55134;SDS011;41031;44.750;11.308;2023-05-10T13:38:36;3.70;;;3.20;;
55134;SDS011;41031;44.750;11.308;2023-05-10T13:41:04;4.10;;;3.63;;
55134;SDS011;41031;44.750;11.308;2023-05-10T13:43:30;5.57;;;3.67;;
55134;SDS011;41031;44.750;11.308;2023-05-10T13:45:57;3.83;;;3.27;;
55134;SDS011;41031;44.750;11.308;2023-05-10T13:48:24;5.97;;;4.03;;
55134;SDS011;41031;44.750;11.308;2023-05-10T13:50:51;3.87;;;2.97;;
55134;SDS011;41031;44.750;11.308;2023-05-10T13:53:18;3.77;;;3.10;;
55134;SDS011;41031;44.750;11.308;2023-05-10T13:55:45;4.47;;;3.60;;
55134;SDS011;41031;44.750;11.308;2023-05-10T13:58:13;2.73;;;2.50;;
55134;SDS011;41031;44.750;11.308;2023-05-10T14:00:40;4.13;;;3.13;;
55134;SDS011;41031;44.750;11.308;2023-05-10T14:03:07;3.87;;;3.30;;
55134;SDS011;41031;44.750;11.308;2023-05-10T14:05:37;4.17;;;3.10;;
55134;SDS011;41031;44.750;11.308;2023-05-10T14:08:04;4.83;;;3.07;;
55134;SDS011;41031;44.750;11.308;2023-05-10T14:10:31;3.43;;;3.10;;
55134;SDS011;41031;44.750;11.308;2023-05-10T14:12:58;3.37;;;2.90;;
55134;SDS011;41031;44.750;11.308;2023-05-10T14:15:25;3.67;;;3.30;;
55134;SDS011;41031;44.750;11.308;2023-05-10T14:17:52;3.20;;;2.90;;
55134;SDS011;41031;44.750;11.308;2023-05-10T14:20:19;3.47;;;3.13;;
55134;SDS011;41031;44.750;11.308;2023-05-10T14:22:46;4.80;;;3.00;;
55134;SDS011;41031;44.750;11.308;2023-05-10T14:25:13;4.17;;;2.93;;
55134;SDS011;41031;44.750;11.308;2023-05-10T14:27:41;4.03;;;3.63;;
55134;SDS011;41031;44.750;11.308;2023-05-10T14:30:08;3.13;;;2.83;;
55134;SDS011;41031;44.750;11.308;2023-05-10T14:32:36;4.47;;;4.07;;
55134;SDS011;41031;44.750;11.308;2023-05-10T14:35:03;3.50;;;3.20;;
55134;SDS011;41031;44.750;11.308;2023-05-10T14:37:32;3.93;;;2.83;;
55134;SDS011;41031;44.750;11.308;2023-05-10T14:39:59;3.33;;;3.00;;
55134;SDS011;41031;44.750;11.308;2023-05-10T14:42:26;3.97;;;2.90;;
55134;SDS011;41031;44.750;11.308;2023-05-10T14:44:54;2.87;;;2.67;;
55134;SDS011;41031;44.750;11.308;2023-05-10T14:47:22;4.27;;;3.17;;
55134;SDS011;41031;44.750;11.308;2023-05-10T14:49:49;4.37;;;3.30;;
55134;SDS011;41031;44.750;11.308;2023-05-10T14:52:15;4.27;;;2.83;;
55134;SDS011;41031;44.750;11.308;2023-05-10T14:54:43;2.77;;;2.50;;
55134;SDS011;41031;44.750;11.308;2023-05-10T14:57:10;3.97;;;3.13;;
55134;SDS011;41031;44.750;11.308;2023-05-10T14:59:37;3.10;;;2.80;;
55134;SDS011;41031;44.750;11.308;2023-05-10T15:02:04;4.33;;;2.37;;
55134;SDS011;41031;44.750;11.308;2023-05-10T15:04:32;3.03;;;2.50;;
55134;SDS011;41031;44.750;11.308;2023-05-10T15:07:00;3.47;;;3.10;;
55134;SDS011;41031;44.750;11.308;2023-05-10T15:09:27;2.70;;;2.50;;